Time;durP1;ratioP1;P1;durP2;ratioP2;P2;SDS_P1;SDS_P2;PMS_P1;PMS_P2;Temp;Humidity;BMP_temperature;BMP_pressure;BME280_temperature;BME280_humidity;BME280_pressure;Samples;Min_cycle;Max_cycle;Signal;HPM_P1;HPM_P2
2023/08/29 00:00:02;;;;;;;;;5.67;3.67;;;;;19.87;51.96;100933.91;5068248;28;46021;-68
2023/08/29 00:02:31;;;;;;;;;4.00;3.00;;;;;19.77;52.49;100914.75;5058826;28;45347;-66
2023/08/29 00:04:57;;;;;;;;;2.33;2.33;;;;;19.86;54.41;100933.03;5069409;27;45417;-67
2023/08/29 00:07:22;;;;;;;;;3.00;3.00;;;;;19.87;52.23;100933.91;5076052;27;45419;-66
2023/08/29 00:09:48;;;;;;;;;4.00;3.00;;;;;19.84;52.36;100926.91;5075478;27;45436;-67
2023/08/29 00:12:14;;;;;;;;;3.67;2.00;;;;;19.90;52.33;100939.13;5070414;27;45619;-65
2023/08/29 00:14:40;;;;;;;;;4.67;3.00;;;;;19.91;52.41;100938.22;5070730;28;45475;-65
2023/08/29 00:17:07;;;;;;;;;4.00;4.00;;;;;19.91;53.23;100932.91;5071539;27;45282;-65
2023/08/29 00:19:33;;;;;;;;;4.33;2.67;;;;;19.92;52.16;100927.50;5064744;28;46261;-64
2023/08/29 00:22:01;;;;;;;;;4.00;3.00;;;;;19.94;51.99;100930.13;5070155;27;45503;-68
2023/08/29 00:24:28;;;;;;;;;2.00;2.00;;;;;19.92;52.48;100931.97;5066188;27;45510;-66
2023/08/29 00:26:53;;;;;;;;;3.00;3.00;;;;;19.97;52.27;100937.97;5066020;27;45453;-63
2023/08/29 00:29:19;;;;;;;;;2.00;2.00;;;;;19.89;51.72;100932.94;5073695;27;45491;-67
2023/08/29 00:31:44;;;;;;;;;4.00;2.67;;;;;19.85;51.80;100923.31;5075180;27;46372;-64
2023/08/29 00:34:10;;;;;;;;;3.67;2.33;;;;;19.95;52.25;100937.16;5092474;27;45550;-66
2023/08/29 00:36:35;;;;;;;;;7.33;3.00;;;;;19.98;52.12;100938.84;5086990;27;45362;-63
2023/08/29 00:39:01;;;;;;;;;3.00;3.00;;;;;19.97;52.07;100937.13;5064759;27;45654;-64
2023/08/29 00:41:27;;;;;;;;;3.67;3.67;;;;;19.95;52.29;100942.47;5062576;27;46430;-65
2023/08/29 00:43:52;;;;;;;;;3.33;3.33;;;;;19.93;52.40;100931.03;5061596;28;45330;-65
2023/08/29 00:46:19;;;;;;;;;2.00;2.00;;;;;19.96;52.11;100930.09;5063212;28;45453;-65
2023/08/29 00:48:45;;;;;;;;;1.33;1.33;;;;;19.92;51.85;100918.66;5073262;27;45416;-64
2023/08/29 00:51:11;;;;;;;;;3.00;3.00;;;;;19.86;51.76;100924.19;5075317;27;45416;-64
2023/08/29 00:53:36;;;;;;;;;3.67;3.33;;;;;19.85;51.96;100931.28;5088844;27;45497;-64
2023/08/29 00:56:04;;;;;;;;;2.33;2.33;;;;;19.82;51.99;100920.78;5074938;27;45536;-62
2023/08/29 00:58:31;;;;;;;;;4.00;3.00;;;;;19.66;52.11;100899.09;5068514;27;46052;-63
2023/08/29 01:00:56;;;;;;;;;5.33;3.00;;;;;19.73;52.28;100921.06;5064549;28;45511;-64
2023/08/29 01:03:22;;;;;;;;;4.00;4.00;;;;;19.69;52.14;100914.13;5063914;27;45544;-63
2023/08/29 01:05:47;;;;;;;;;3.33;3.00;;;;;19.57;52.60;100898.53;5059229;27;45362;-62
2023/08/29 01:08:13;;;;;;;;;5.00;3.00;;;;;19.63;52.91;100916.97;5060223;27;45537;-65
2023/08/29 01:11:06;;;;;;;;;3.33;3.33;;;;;19.52;53.03;100929.72;5063631;27;45430;-64
2023/08/29 01:13:50;;;;;;;;;4.33;2.67;;;;;19.42;53.35;100924.69;5075388;28;45483;-64
2023/08/29 01:16:21;;;;;;;;;6.00;3.00;;;;;19.26;53.65;100915.47;5074602;27;45754;-63
2023/08/29 01:18:47;;;;;;;;;3.33;2.00;;;;;19.23;54.03;100921.75;5060711;27;46782;-64
2023/08/29 01:21:28;;;;;;;;;2.00;2.00;;;;;19.11;54.34;100915.94;5071068;28;45461;-63
2023/08/29 01:24:02;;;;;;;;;3.00;3.00;;;;;19.11;54.53;100915.94;5058440;28;45449;-63
2023/08/29 01:26:28;;;;;;;;;4.00;2.33;;;;;19.09;54.44;100905.38;5061487;27;45462;-65
2023/08/29 01:28:54;;;;;;;;;3.00;3.00;;;;;19.08;54.21;100901.00;5068463;27;46587;-64
2023/08/29 01:31:21;;;;;;;;;5.33;4.00;;;;;19.00;54.46;100901.19;5074195;27;45591;-63
2023/08/29 01:33:47;;;;;;;;;3.33;3.33;;;;;18.88;55.04;100898.06;5075526;28;45431;-63
2023/08/29 01:36:12;;;;;;;;;5.67;3.33;;;;;18.88;55.03;100914.84;5073954;27;45515;-66
2023/08/29 01:38:38;;;;;;;;;3.67;2.67;;;;;18.91;55.16;100914.78;5067518;27;46105;-63
2023/08/29 01:41:04;;;;;;;;;4.00;2.67;;;;;18.84;55.37;100916.72;5069992;27;45543;-64
2023/08/29 01:43:29;;;;;;;;;4.00;2.00;;;;;18.73;55.77;100920.56;5065521;27;45547;-65
2023/08/29 01:45:55;;;;;;;;;3.00;3.00;;;;;18.68;55.64;100909.22;5068660;27;45501;-64
2023/08/29 01:48:21;;;;;;;;;3.67;2.00;;;;;18.74;55.60;100914.34;5063216;27;46574;-64
2023/08/29 01:50:48;;;;;;;;;4.00;2.33;;;;;18.57;56.23;100890.94;5064008;28;45406;-65
2023/08/29 01:53:13;;;;;;;;;3.00;3.00;;;;;18.57;56.17;100913.03;5073713;27;45421;-65
2023/08/29 01:55:40;;;;;;;;;2.67;2.67;;;;;18.58;56.37;100912.16;5073459;27;45431;-65
2023/08/29 01:58:07;;;;;;;;;2.67;2.00;;;;;18.54;56.70;100910.47;5077617;27;46197;-64
2023/08/29 02:00:34;;;;;;;;;4.33;3.33;;;;;18.48;56.92;100910.63;5061794;27;45659;-64
2023/08/29 02:03:00;;;;;;;;;3.00;3.00;;;;;18.47;56.62;100906.25;5070548;27;45247;-64
2023/08/29 02:05:25;;;;;;;;;3.33;2.00;;;;;18.39;57.11;100905.63;5076257;27;45406;-64
2023/08/29 02:07:51;;;;;;;;;4.67;3.00;;;;;18.38;56.93;100909.16;5074825;27;45498;-65
2023/08/29 02:10:17;;;;;;;;;4.33;3.00;;;;;18.31;57.16;100903.16;5073458;27;45547;-65
2023/08/29 02:12:42;;;;;;;;;6.33;2.67;;;;;18.34;57.46;100924.31;5066756;27;45402;-66
2023/08/29 02:15:09;;;;;;;;;4.00;3.67;;;;;18.25;57.59;100916.59;5071441;27;45402;-65
2023/08/29 02:17:36;;;;;;;;;3.00;3.00;;;;;18.22;57.87;100919.31;5071125;27;45518;-64
2023/08/29 02:20:04;;;;;;;;;4.00;3.00;;;;;18.24;57.83;100922.78;5076726;27;45472;-65
2023/08/29 02:22:30;;;;;;;;;3.00;3.00;;;;;18.17;57.82;100921.22;5078193;27;45442;-64
2023/08/29 02:24:56;;;;;;;;;1.67;1.67;;;;;18.19;57.91;100930.00;5075808;27;45511;-65
2023/08/29 02:27:21;;;;;;;;;5.00;3.00;;;;;18.09;58.43;100917.91;5077241;27;45497;-65
2023/08/29 02:29:47;;;;;;;;;4.00;2.00;;;;;17.77;58.41;100883.34;5072625;27;45472;-66
2023/08/29 02:32:14;;;;;;;;;2.33;2.33;;;;;18.17;58.24;100940.63;5074246;27;45615;-67
2023/08/29 02:34:39;;;;;;;;;3.67;2.00;;;;;18.18;58.06;100933.56;5071798;27;45807;-65
2023/08/29 02:37:05;;;;;;;;;2.00;2.00;;;;;18.23;57.80;100934.31;5068985;28;45921;-65
2023/08/29 02:39:31;;;;;;;;;6.00;3.00;;;;;18.29;57.86;100935.94;5072606;27;45376;-64
2023/08/29 02:41:57;;;;;;;;;3.33;3.00;;;;;18.29;57.84;100942.09;5068952;27;45542;-65
2023/08/29 02:44:22;;;;;;;;;2.33;2.33;;;;;18.27;57.93;100938.63;5073128;27;45480;-65
2023/08/29 02:46:48;;;;;;;;;3.67;3.00;;;;;18.30;57.77;100940.34;5067105;27;45331;-65
2023/08/29 02:49:13;;;;;;;;;3.00;3.00;;;;;18.26;58.29;100912.16;5064403;27;45502;-66
2023/08/29 02:51:39;;;;;;;;;3.67;3.67;;;;;18.26;58.38;100920.13;5074797;27;45578;-65
2023/08/29 02:54:04;;;;;;;;;5.67;3.33;;;;;18.29;58.19;100927.97;5068135;27;45478;-64
2023/08/29 02:56:31;;;;;;;;;1.00;1.00;;;;;18.32;58.24;100931.44;5077297;27;46221;-66
2023/08/29 02:58:57;;;;;;;;;4.00;4.00;;;;;18.14;58.56;100916.00;5070265;27;45311;-63
2023/08/29 03:01:23;;;;;;;;;4.00;4.00;;;;;18.17;58.82;100935.34;5071139;27;45475;-64
2023/08/29 03:03:49;;;;;;;;;4.67;4.33;;;;;18.14;58.48;100916.88;5076172;27;45361;-64
2023/08/29 03:06:15;;;;;;;;;2.33;2.33;;;;;18.28;58.59;100923.59;5070989;28;45475;-65
2023/08/29 03:08:41;;;;;;;;;2.67;2.00;;;;;18.36;58.59;100927.75;5078585;27;45401;-65
2023/08/29 03:11:06;;;;;;;;;5.00;3.00;;;;;18.39;58.40;100924.19;5066969;27;45437;-63
2023/08/29 03:13:32;;;;;;;;;2.00;2.00;;;;;18.29;58.65;100907.63;5063244;27;45379;-64
2023/08/29 03:15:59;;;;;;;;;6.00;3.67;;;;;18.39;58.51;100921.53;5062570;28;46469;-65
2023/08/29 03:18:26;;;;;;;;;3.00;3.00;;;;;18.41;58.44;100917.94;5075821;27;45415;-65
2023/08/29 03:20:52;;;;;;;;;3.00;3.00;;;;;18.39;58.64;100910.94;5094214;27;45421;-66
2023/08/29 03:23:18;;;;;;;;;3.00;2.67;;;;;18.40;58.42;100902.91;5066092;27;45378;-65
2023/08/29 03:25:43;;;;;;;;;4.00;3.00;;;;;18.51;58.30;100909.69;5078395;27;45429;-65
2023/08/29 03:28:09;;;;;;;;;4.00;4.00;;;;;18.38;58.74;100904.72;5076541;27;45421;-64
2023/08/29 03:30:35;;;;;;;;;4.00;3.33;;;;;18.36;58.92;100911.84;5060064;27;45867;-64
2023/08/29 03:33:01;;;;;;;;;4.00;3.00;;;;;18.27;58.82;100896.22;5064526;27;45563;-63
2023/08/29 03:35:26;;;;;;;;;5.00;2.00;;;;;18.43;58.45;100910.78;5067454;28;46377;-63
2023/08/29 03:37:52;;;;;;;;;4.00;1.67;;;;;18.41;58.77;100895.81;5076057;27;45531;-64
2023/08/29 03:40:18;;;;;;;;;4.00;4.00;;;;;18.40;58.46;100891.44;5074826;27;45478;-67
2023/08/29 03:42:43;;;;;;;;;3.00;3.00;;;;;18.47;58.32;100895.66;5074984;27;45464;-63
2023/08/29 03:45:09;;;;;;;;;6.00;4.00;;;;;18.50;58.94;100902.66;5068282;27;45803;-64
2023/08/29 03:47:37;;;;;;;;;4.00;4.00;;;;;18.40;59.00;100892.31;5070703;27;45845;-64
2023/08/29 03:50:03;;;;;;;;;3.00;3.00;;;;;18.36;59.06;100903.03;5068187;27;45485;-64
2023/08/29 03:52:29;;;;;;;;;3.00;3.00;;;;;18.28;59.01;100874.09;5071503;27;45466;-65
2023/08/29 03:54:58;;;;;;;;;4.00;4.00;;;;;18.33;58.66;100882.78;5073238;27;47388;-67
2023/08/29 03:57:24;;;;;;;;;5.00;5.00;;;;;18.33;59.12;100889.88;5072756;27;45378;-64
2023/08/29 03:59:49;;;;;;;;;6.00;3.67;;;;;18.20;59.13;100882.25;5064559;27;45900;-65
2023/08/29 04:02:15;;;;;;;;;6.33;4.67;;;;;18.18;59.42;100889.38;5065563;27;45862;-64
2023/08/29 04:04:47;;;;;;;;;7.33;5.33;;;;;18.12;59.95;100881.56;5064729;27;45468;-63
2023/08/29 04:07:13;;;;;;;;;8.00;6.33;;;;;18.07;59.95;100888.78;5062368;27;45501;-63
2023/08/29 04:09:39;;;;;;;;;7.00;7.00;;;;;17.98;60.06;100883.72;5075970;27;45657;-64
2023/08/29 04:12:10;;;;;;;;;8.67;7.00;;;;;17.87;59.88;100853.97;5073998;27;45441;-63
2023/08/29 04:14:36;;;;;;;;;6.67;4.00;;;;;17.45;59.44;100793.25;5073850;27;46144;-63
2023/08/29 04:17:03;;;;;;;;;10.00;9.00;;;;;17.68;60.05;100827.09;5070382;27;45438;-62
2023/08/29 04:19:30;;;;;;;;;10.33;7.67;;;;;17.79;60.25;100862.09;5070780;27;46381;-63
2023/08/29 04:21:56;;;;;;;;;12.33;7.00;;;;;17.94;60.47;100888.25;5067512;27;45439;-64
2023/08/29 04:24:23;;;;;;;;;10.00;8.33;;;;;17.98;60.28;100886.38;5060146;27;45742;-64
2023/08/29 04:26:49;;;;;;;;;7.00;7.00;;;;;17.98;60.28;100881.94;5060291;27;45438;-64
2023/08/29 04:29:14;;;;;;;;;9.00;8.00;;;;;17.90;60.83;100888.38;5065564;27;45270;-63
2023/08/29 04:31:40;;;;;;;;;9.33;8.00;;;;;17.74;60.68;100880.75;5062988;27;45469;-63
2023/08/29 04:34:06;;;;;;;;;8.67;6.33;;;;;17.85;60.80;100892.91;5068763;27;45641;-65
2023/08/29 04:36:31;;;;;;;;;8.00;6.00;;;;;17.84;60.77;100878.78;5065507;28;45451;-65
2023/08/29 04:39:00;;;;;;;;;6.67;6.00;;;;;17.89;60.85;100879.56;5065840;28;45615;-63
2023/08/29 04:41:26;;;;;;;;;5.33;5.00;;;;;17.96;60.47;100881.13;5067404;27;45505;-67
2023/08/29 04:43:51;;;;;;;;;5.67;3.67;;;;;17.97;60.63;100876.69;5054664;28;46859;-67
2023/08/29 04:46:17;;;;;;;;;7.00;6.33;;;;;17.91;60.35;100867.09;5076017;27;45268;-65
2023/08/29 04:48:43;;;;;;;;;5.00;4.67;;;;;17.99;60.41;100902.25;5057436;28;45361;-64
2023/08/29 04:51:08;;;;;;;;;6.33;4.00;;;;;17.94;60.79;100888.25;5077659;27;45398;-64
2023/08/29 04:53:34;;;;;;;;;8.00;4.00;;;;;17.56;60.60;100823.84;5059138;27;46100;-63
2023/08/29 04:56:02;;;;;;;;;4.00;4.00;;;;;17.55;60.62;100830.03;5058931;28;45344;-64
2023/08/29 04:58:29;;;;;;;;;5.33;5.00;;;;;17.97;60.98;100892.59;5062236;27;45509;-65
2023/08/29 05:00:56;;;;;;;;;9.67;5.67;;;;;17.83;60.63;100879.69;5060751;27;45471;-64
2023/08/29 05:03:22;;;;;;;;;6.67;5.00;;;;;17.75;61.17;100866.63;5066824;27;46233;-64
2023/08/29 05:05:48;;;;;;;;;4.67;4.33;;;;;17.65;61.29;100867.75;5060137;27;45497;-63
2023/08/29 05:08:14;;;;;;;;;5.33;5.33;;;;;17.75;61.69;100893.13;5052513;28;45828;-63
2023/08/29 05:10:46;;;;;;;;;8.00;6.33;;;;;17.44;62.04;100862.97;5075727;27;46428;-65
2023/08/29 05:13:13;;;;;;;;;5.00;5.00;;;;;17.55;62.16;100884.78;5064866;28;46198;-64
2023/08/29 05:15:38;;;;;;;;;6.33;3.67;;;;;17.56;62.14;100894.50;5056849;27;45566;-64
2023/08/29 05:18:04;;;;;;;;;5.00;4.67;;;;;17.50;62.81;100887.53;5057240;27;45639;-64
2023/08/29 05:20:34;;;;;;;;;6.67;5.00;;;;;17.47;62.64;100887.63;5068582;27;45398;-66
2023/08/29 05:23:00;;;;;;;;;3.00;3.00;;;;;17.28;62.62;100855.44;5076373;27;45496;-68
2023/08/29 05:25:25;;;;;;;;;6.00;4.50;;;;;17.31;62.71;100859.78;5076833;27;45490;-67
2023/08/29 05:27:51;;;;;;;;;9.00;7.33;;;;;17.02;62.33;100805.75;5076947;27;45615;-64
2023/08/29 05:30:17;;;;;;;;;6.33;6.33;;;;;17.41;62.63;100869.22;5078097;28;45404;-64
2023/08/29 05:32:42;;;;;;;;;6.67;4.00;;;;;17.54;62.69;100893.66;5077162;27;46277;-64
2023/08/29 05:35:09;;;;;;;;;3.33;3.33;;;;;17.38;62.36;100864.00;5079669;27;45271;-64
2023/08/29 05:37:34;;;;;;;;;4.33;4.33;;;;;17.52;62.97;100898.09;5081754;27;45309;-65
2023/08/29 05:40:00;;;;;;;;;7.33;4.67;;;;;17.37;62.27;100860.50;5080746;27;45215;-64
2023/08/29 05:42:27;;;;;;;;;7.00;6.00;;;;;17.69;62.31;100892.41;5080293;27;45283;-64
2023/08/29 05:44:53;;;;;;;;;5.67;4.00;;;;;17.49;62.18;100847.88;5079829;27;45460;-67
2023/08/29 05:47:18;;;;;;;;;5.67;5.67;;;;;17.66;62.80;100879.25;5080043;27;45504;-67
2023/08/29 05:49:44;;;;;;;;;6.67;6.67;;;;;17.82;62.22;100887.69;5080293;27;45538;-69
2023/08/29 05:52:15;;;;;;;;;6.00;6.00;;;;;17.78;61.60;100852.44;5080251;27;45559;-65
2023/08/29 05:54:42;;;;;;;;;8.33;5.00;;;;;18.10;61.20;100893.13;5080387;27;45932;-66
2023/08/29 05:57:08;;;;;;;;;12.00;8.00;;;;;18.10;60.95;100880.75;5079070;27;45476;-64
2023/08/29 05:59:33;;;;;;;;;7.33;6.33;;;;;17.94;60.73;100823.78;5079091;27;45480;-64
2023/08/29 06:01:59;;;;;;;;;7.67;6.33;;;;;18.35;60.37;100873.00;5079877;27;46512;-65
2023/08/29 06:04:25;;;;;;;;;8.33;7.33;;;;;18.30;60.31;100855.50;5080083;27;45352;-64
2023/08/29 06:06:50;;;;;;;;;8.67;7.00;;;;;18.33;60.02;100850.97;5080770;27;45563;-64
2023/08/29 06:09:17;;;;;;;;;7.00;7.00;;;;;18.54;59.66;100860.09;5081505;27;45423;-64
2023/08/29 06:11:43;;;;;;;;;7.67;5.33;;;;;18.70;59.57;100878.19;5081027;27;45591;-64
2023/08/29 06:14:08;;;;;;;;;7.00;7.00;;;;;18.65;59.56;100858.00;5095420;27;45365;-65
2023/08/29 06:16:34;;;;;;;;;8.33;6.67;;;;;18.82;59.30;100868.13;5079610;27;45332;-65
2023/08/29 06:19:05;;;;;;;;;11.00;9.67;;;;;18.94;58.76;100872.19;5079627;27;45291;-64
2023/08/29 06:21:31;;;;;;;;;9.00;6.33;;;;;18.78;58.59;100836.44;5079173;27;46574;-64
2023/08/29 06:24:00;;;;;;;;;6.00;6.00;;;;;19.11;58.61;100879.66;5077914;27;45623;-64
2023/08/29 06:26:27;;;;;;;;;11.00;6.33;;;;;19.22;58.16;100885.50;5078992;27;45452;-65
2023/08/29 06:28:52;;;;;;;;;8.00;7.00;;;;;19.30;58.44;100879.06;5080586;27;45328;-65
2023/08/29 06:31:18;;;;;;;;;7.33;5.67;;;;;19.37;58.29;100878.81;5081073;27;46177;-64
2023/08/29 06:33:44;;;;;;;;;5.00;4.67;;;;;19.24;57.88;100851.81;5080682;27;45453;-64
2023/08/29 06:36:10;;;;;;;;;6.33;6.00;;;;;19.30;57.80;100852.50;5080381;27;45509;-64
2023/08/29 06:38:36;;;;;;;;;8.00;6.00;;;;;19.40;57.58;100864.56;5079585;27;45512;-64
2023/08/29 06:41:06;;;;;;;;;8.33;5.00;;;;;19.49;57.36;100865.13;5080958;27;45338;-65
2023/08/29 06:43:32;;;;;;;;;6.00;6.00;;;;;19.50;57.56;100860.69;5081263;27;45441;-63
2023/08/29 06:45:57;;;;;;;;;6.00;5.33;;;;;19.48;57.00;100846.56;5079677;27;45370;-64
2023/08/29 06:48:23;;;;;;;;;5.33;5.00;;;;;19.80;57.37;100884.53;5079535;27;45571;-65
2023/08/29 06:50:49;;;;;;;;;10.67;6.00;;;;;19.86;57.32;100884.31;5094923;27;47647;-66
2023/08/29 06:53:14;;;;;;;;;8.67;5.00;;;;;19.90;56.89;100894.78;5079702;27;45541;-67
2023/08/29 06:55:40;;;;;;;;;6.33;5.00;;;;;19.98;57.24;100894.56;5081286;27;45354;-65
2023/08/29 06:58:06;;;;;;;;;9.33;7.00;;;;;20.05;56.67;100890.75;5079419;27;45506;-66
2023/08/29 07:00:32;;;;;;;;;7.67;5.00;;;;;20.13;56.83;100885.16;5078526;27;46038;-67
2023/08/29 07:02:58;;;;;;;;;3.67;3.67;;;;;20.20;57.11;100893.78;5078724;27;45486;-65
2023/08/29 07:05:24;;;;;;;;;4.00;4.00;;;;;20.25;56.22;100890.03;5078677;27;45306;-63
2023/08/29 07:07:50;;;;;;;;;9.00;5.00;;;;;20.25;56.28;100881.19;5111637;27;45286;-66
2023/08/29 07:10:16;;;;;;;;;7.00;5.33;;;;;20.45;56.21;100893.75;5077342;27;46896;-67
2023/08/29 07:12:42;;;;;;;;;6.67;4.00;;;;;20.38;56.12;100882.47;5080415;27;45404;-65
2023/08/29 07:15:08;;;;;;;;;4.00;4.00;;;;;20.59;55.86;100899.47;5077715;27;45449;-63
2023/08/29 07:17:34;;;;;;;;;9.33;7.00;;;;;20.67;56.45;100897.41;5094765;27;45423;-64
2023/08/29 07:20:00;;;;;;;;;7.33;5.67;;;;;20.61;55.62;100873.69;5078404;27;45401;-65
2023/08/29 07:22:25;;;;;;;;;9.33;7.67;;;;;20.86;55.51;100899.38;5080513;27;45425;-65
2023/08/29 07:24:51;;;;;;;;;7.67;4.67;;;;;20.95;55.03;100905.22;5097509;27;46133;-65
2023/08/29 07:27:17;;;;;;;;;4.67;4.67;;;;;21.03;55.11;100901.41;5078703;27;45429;-64
2023/08/29 07:29:43;;;;;;;;;5.00;4.67;;;;;21.09;54.60;100890.50;5078062;27;45587;-64
2023/08/29 07:32:09;;;;;;;;;7.00;5.67;;;;;21.22;54.64;100898.88;5079941;27;45652;-64
2023/08/29 07:34:35;;;;;;;;;6.33;6.33;;;;;21.23;53.64;100892.63;5077711;27;45388;-66
2023/08/29 07:37:00;;;;;;;;;8.00;5.67;;;;;21.31;53.77;100902.03;5068241;27;45216;-65
2023/08/29 07:39:26;;;;;;;;;7.00;4.33;;;;;21.28;53.89;100898.63;5071457;27;45993;-64
2023/08/29 07:41:51;;;;;;;;;8.67;6.33;;;;;21.37;54.38;100907.09;5065931;27;45378;-65
2023/08/29 07:44:17;;;;;;;;;4.67;4.67;;;;;21.30;53.85;100899.44;5072646;27;45417;-66
2023/08/29 07:46:43;;;;;;;;;4.33;4.33;;;;;21.22;53.98;100902.41;5068040;27;45404;-64
2023/08/29 07:49:14;;;;;;;;;5.00;4.00;;;;;21.26;53.89;100898.69;5068945;28;45522;-64
2023/08/29 07:51:40;;;;;;;;;6.00;5.00;;;;;21.32;53.82;100894.91;5075914;27;45414;-65
2023/08/29 07:54:06;;;;;;;;;6.33;4.67;;;;;21.48;53.26;100908.53;5072318;27;45275;-66
2023/08/29 07:56:31;;;;;;;;;6.67;6.33;;;;;21.50;53.45;100891.53;5077201;27;45401;-64
2023/08/29 07:58:57;;;;;;;;;6.00;5.00;;;;;21.61;52.83;100891.09;5065557;27;47184;-64
2023/08/29 08:01:22;;;;;;;;;6.67;6.00;;;;;21.67;52.84;100900.66;5071743;28;45481;-63
2023/08/29 08:03:48;;;;;;;;;6.33;4.33;;;;;21.65;52.95;100884.69;5068229;27;45458;-65
2023/08/29 08:06:13;;;;;;;;;5.33;4.00;;;;;21.77;52.50;100888.66;5072764;27;45359;-65
2023/08/29 08:08:39;;;;;;;;;5.00;5.00;;;;;21.90;52.22;100903.22;5070727;27;45417;-64
2023/08/29 08:11:05;;;;;;;;;4.33;3.33;;;;;21.92;51.96;100885.31;5074225;27;45525;-65
2023/08/29 08:13:31;;;;;;;;;6.00;6.00;;;;;22.03;51.74;100891.06;5071461;27;45428;-64
2023/08/29 08:15:58;;;;;;;;;7.00;6.00;;;;;22.10;52.05;100883.66;5072188;27;45624;-65
2023/08/29 08:18:23;;;;;;;;;6.33;5.00;;;;;22.12;52.27;100878.28;5075183;27;45311;-64
2023/08/29 08:20:49;;;;;;;;;5.00;5.00;;;;;22.25;52.01;100892.81;5072443;27;45531;-65
2023/08/29 08:23:24;;;;;;;;;6.67;5.00;;;;;22.22;51.17;100874.31;5068768;27;45663;-64
2023/08/29 08:25:50;;;;;;;;;4.00;4.00;;;;;22.33;51.51;100885.38;5076523;27;45579;-65
2023/08/29 08:28:16;;;;;;;;;5.67;4.33;;;;;22.34;50.75;100895.09;5070911;28;45444;-63
2023/08/29 08:30:41;;;;;;;;;4.00;4.00;;;;;22.29;51.02;100888.25;5073997;27;45414;-64
2023/08/29 08:33:07;;;;;;;;;3.33;3.33;;;;;22.27;50.99;100893.63;5072860;27;45584;-64
2023/08/29 08:35:33;;;;;;;;;3.67;3.00;;;;;22.38;50.72;100890.50;5076971;27;45457;-65
2023/08/29 08:37:58;;;;;;;;;5.67;3.33;;;;;22.50;50.48;100883.75;5074643;27;46043;-65
2023/08/29 08:40:24;;;;;;;;;2.00;2.00;;;;;22.37;49.70;100851.38;5076182;27;45601;-65
2023/08/29 08:42:50;;;;;;;;;5.67;4.00;;;;;22.68;48.99;100885.56;5076394;27;45582;-63
2023/08/29 08:45:16;;;;;;;;;6.00;4.33;;;;;22.73;49.14;100880.91;5075496;27;45467;-68
2023/08/29 08:47:42;;;;;;;;;3.33;3.33;;;;;22.73;49.37;100861.31;5077399;27;46274;-68
2023/08/29 08:50:09;;;;;;;;;6.33;3.00;;;;;22.85;49.57;100880.31;5074375;27;45683;-65
2023/08/29 08:52:35;;;;;;;;;5.33;4.00;;;;;22.94;49.12;100873.66;5075880;27;45440;-63
2023/08/29 08:55:01;;;;;;;;;2.33;2.00;;;;;22.99;48.66;100869.03;5074412;27;45770;-63
2023/08/29 08:57:27;;;;;;;;;3.00;3.00;;;;;23.12;48.34;100879.97;5076509;27;45470;-66
2023/08/29 08:59:59;;;;;;;;;4.00;4.00;;;;;23.11;47.53;100867.53;5075768;27;45892;-65
2023/08/29 09:02:26;;;;;;;;;4.00;4.00;;;;;23.13;47.52;100881.69;5061685;28;45492;-63
2023/08/29 09:04:53;;;;;;;;;4.67;3.67;;;;;23.05;47.18;100874.06;5076442;27;45449;-67
2023/08/29 09:07:18;;;;;;;;;5.67;4.00;;;;;23.01;47.13;100863.59;5074570;27;45589;-66
2023/08/29 09:10:09;;;;;;;;;2.67;2.00;;;;;23.07;47.61;100874.84;5075261;27;45467;-67
2023/08/29 09:12:35;;;;;;;;;2.67;2.67;;;;;22.90;47.14;100855.16;5077256;27;45168;-66
2023/08/29 09:15:04;;;;;;;;;2.33;2.33;;;;;22.85;47.33;100879.41;5075556;27;45549;-66
2023/08/29 09:17:31;;;;;;;;;2.00;1.00;;;;;22.77;47.21;100876.25;5075316;27;45341;-67
2023/08/29 09:20:00;;;;;;;;;3.00;3.00;;;;;22.78;45.93;100870.84;5075324;28;45481;-64
2023/08/29 09:22:26;;;;;;;;;4.67;4.67;;;;;22.53;46.26;100849.75;5075512;28;45231;-66
2023/08/29 09:25:00;;;;;;;;;3.00;3.00;;;;;22.56;46.39;100862.09;5077189;27;45793;-66
2023/08/29 09:27:26;;;;;;;;;2.33;2.33;;;;;22.59;46.46;100852.16;5076931;27;46034;-66
2023/08/29 09:29:51;;;;;;;;;6.67;4.00;;;;;22.69;46.43;100857.94;5076526;27;45656;-65
2023/08/29 09:32:17;;;;;;;;;7.00;5.33;;;;;22.86;46.01;100866.00;5078057;27;45401;-65
2023/08/29 09:34:42;;;;;;;;;8.00;5.00;;;;;22.83;45.05;100842.13;5077839;27;45553;-66
2023/08/29 09:37:12;;;;;;;;;4.00;4.00;;;;;22.86;44.56;100847.31;5076456;28;46183;-65
2023/08/29 09:39:37;;;;;;;;;3.67;3.67;;;;;22.92;44.52;100858.63;5076127;27;45563;-63
2023/08/29 09:42:09;;;;;;;;;3.33;3.33;;;;;22.92;45.73;100843.50;5076337;27;45635;-66
2023/08/29 09:44:37;;;;;;;;;3.00;3.00;;;;;23.02;45.91;100850.16;5074962;27;45499;-65
2023/08/29 09:47:05;;;;;;;;;3.00;2.00;;;;;23.17;45.17;100848.53;5077684;27;46112;-65
2023/08/29 09:49:42;;;;;;;;;2.00;2.00;;;;;23.18;45.21;100852.06;5077516;27;45309;-65
2023/08/29 09:52:09;;;;;;;;;3.00;3.00;;;;;23.35;45.24;100857.47;5061382;27;45506;-66
2023/08/29 09:54:37;;;;;;;;;4.33;2.00;;;;;23.46;43.76;100847.09;5076433;27;45889;-66
2023/08/29 09:57:05;;;;;;;;;6.00;4.67;;;;;23.49;43.17;100843.41;5075851;27;46370;-67
2023/08/29 09:59:34;;;;;;;;;3.00;3.00;;;;;23.39;43.21;100852.84;5076615;27;45350;-64
2023/08/29 10:02:01;;;;;;;;;2.75;2.75;;;;;23.26;43.54;100821.38;5076885;27;45528;-64
2023/08/29 10:04:29;;;;;;;;;5.50;4.00;;;;;23.58;43.71;100842.94;5076839;27;45441;-64
2023/08/29 10:06:59;;;;;;;;;3.33;3.33;;;;;23.70;42.95;100839.66;5076657;27;45972;-64
2023/08/29 10:09:25;;;;;;;;;5.00;4.00;;;;;23.56;43.31;100834.13;5075842;27;45366;-65
2023/08/29 10:11:53;;;;;;;;;2.50;2.50;;;;;23.66;44.01;100839.91;5076327;27;45430;-66
2023/08/29 10:14:19;;;;;;;;;3.00;3.00;;;;;23.65;44.29;100839.00;5074976;28;45377;-65
2023/08/29 10:16:48;;;;;;;;;3.00;1.00;;;;;23.58;44.22;100834.06;5075922;27;46185;-64
2023/08/29 10:19:15;;;;;;;;;3.00;3.00;;;;;23.47;43.87;100832.81;5075838;27;45533;-65
2023/08/29 10:21:42;;;;;;;;;3.33;3.33;;;;;23.26;43.76;100828.53;5077388;27;45428;-67
2023/08/29 10:24:11;;;;;;;;;3.00;3.00;;;;;23.18;44.35;100828.91;5079556;27;45425;-67
2023/08/29 10:26:37;;;;;;;;;5.00;4.00;;;;;23.12;43.65;100831.88;5078861;27;45555;-68
2023/08/29 10:29:05;;;;;;;;;3.00;3.00;;;;;23.02;45.41;100823.44;5079728;27;45496;-65
2023/08/29 10:31:35;;;;;;;;;5.00;3.00;;;;;22.98;45.84;100819.19;5078280;27;45416;-65
2023/08/29 10:34:04;;;;;;;;;4.00;2.33;;;;;22.95;45.29;100816.66;5076915;27;45333;-67
2023/08/29 10:36:33;;;;;;;;;4.33;4.00;;;;;23.05;45.42;100819.75;5078735;27;45466;-65
2023/08/29 10:38:59;;;;;;;;;3.00;3.00;;;;;23.10;46.28;100816.88;5080750;27;45496;-65
2023/08/29 10:41:25;;;;;;;;;3.00;3.00;;;;;23.16;44.42;100820.13;5080566;27;45497;-65
2023/08/29 10:44:24;;;;;;;;;2.50;2.00;;;;;23.32;44.65;100816.66;5079775;27;45418;-66
2023/08/29 10:46:52;;;;;;;;;5.33;4.00;;;;;23.57;43.42;100806.47;5078971;27;45556;-65
2023/08/29 10:49:21;;;;;;;;;4.00;3.67;;;;;23.82;43.41;100808.75;5074208;27;45847;-65
2023/08/29 10:52:07;;;;;;;;;4.67;4.00;;;;;23.98;41.85;100807.97;5073848;27;45567;-64
2023/08/29 10:54:33;;;;;;;;;4.67;4.00;;;;;24.07;42.06;100794.97;5073613;27;45455;-65
2023/08/29 10:57:06;;;;;;;;;6.00;5.00;;;;;23.90;40.76;100773.63;5074941;27;46510;-66
2023/08/29 10:59:36;;;;;;;;;7.67;4.67;;;;;23.81;41.24;100774.09;5073914;27;45518;-66
2023/08/29 11:02:31;;;;;;;;;4.00;4.00;;;;;23.62;42.16;100779.50;5074431;27;45572;-68
2023/08/29 11:05:02;;;;;;;;;4.00;4.00;;;;;23.60;42.70;100805.44;5061919;27;45423;-67
2023/08/29 11:07:28;;;;;;;;;3.00;3.00;;;;;23.53;43.55;100804.88;5091214;27;46393;-67
2023/08/29 11:10:12;;;;;;;;;6.33;3.67;;;;;23.47;44.06;100807.91;5068479;27;45633;-65
2023/08/29 11:13:06;;;;;;;;;4.67;3.00;;;;;23.38;45.58;100803.88;5060359;27;45491;-66
2023/08/29 11:16:01;;;;;;;;;4.50;3.25;;;;;23.16;46.36;100804.09;5075256;27;45496;-66
2023/08/29 11:18:36;;;;;;;;;5.33;5.33;;;;;22.82;47.32;100788.78;5060938;27;46325;-65
2023/08/29 11:21:08;;;;;;;;;4.00;4.00;;;;;22.79;47.83;100807.63;5077908;27;45548;-63
2023/08/29 11:23:41;;;;;;;;;4.33;3.67;;;;;22.47;47.94;100779.78;5112331;27;45396;-68